Time;durP1;ratioP1;P1;durP2;ratioP2;P2;SDS_P1;SDS_P2;PMS_P1;PMS_P2;Temp;Humidity;BMP_temperature;BMP_pressure;BME280_temperature;BME280_humidity;BME280_pressure;Samples;Min_cycle;Max_cycle;Signal;HPM_P1;HPM_P2
2023/03/23 00:00:47;;;;;;;9.83;3.20;;;;;;;41.16;34.71;101031.56;4972474;28;20425;-84
2023/03/23 00:03:13;;;;;;;9.80;3.00;;;;;;;41.10;34.41;101037.50;4972090;28;20419;-82
2023/03/23 00:05:49;;;;;;;11.33;3.20;;;;;;;41.24;34.76;101033.44;4988467;28;20426;-82
2023/03/23 00:08:17;;;;;;;8.37;3.10;;;;;;;41.00;34.78;101017.66;4973396;28;20444;-82
2023/03/23 00:10:43;;;;;;;11.53;2.70;;;;;;;41.08;34.74;101014.13;4972290;28;20422;-82
2023/03/23 00:13:11;;;;;;;7.87;2.80;;;;;;;41.11;34.73;101018.13;4971649;28;20442;-82
2023/03/23 00:15:41;;;;;;;8.53;2.80;;;;;;;41.11;34.22;101009.97;4972374;28;20450;-82
2023/03/23 00:18:07;;;;;;;7.60;3.13;;;;;;;41.14;34.07;101006.59;4971817;28;20847;-82
2023/03/23 00:20:40;;;;;;;10.20;4.13;;;;;;;41.14;34.02;100995.72;4972211;28;20965;-82
2023/03/23 00:23:07;;;;;;;7.90;2.93;;;;;;;41.02;33.66;101007.28;4971784;28;20927;-82
2023/03/23 00:25:33;;;;;;;9.67;2.80;;;;;;;41.10;34.33;101008.38;4972066;28;20426;-82
2023/03/23 00:28:00;;;;;;;7.73;3.63;;;;;;;41.12;33.29;100992.50;4972882;28;20426;-82
2023/03/23 00:30:26;;;;;;;10.57;3.20;;;;;;;41.13;33.06;101005.00;4976242;28;20422;-83
2023/03/23 00:32:52;;;;;;;8.40;2.63;;;;;;;41.04;33.92;101002.28;4975224;28;20803;-83
2023/03/23 00:35:19;;;;;;;9.47;3.63;;;;;;;41.25;33.93;101002.41;4982216;28;20478;-84
2023/03/23 00:37:45;;;;;;;7.30;2.67;;;;;;;41.27;33.86;101002.06;4994149;28;20848;-84
2023/03/23 00:40:12;;;;;;;7.67;3.00;;;;;;;41.31;33.53;100995.66;4982278;28;20957;-84
2023/03/23 00:42:38;;;;;;;8.30;2.83;;;;;;;41.40;33.24;100995.63;4994105;28;20190;-84
2023/03/23 00:45:10;;;;;;;7.20;3.03;;;;;;;41.33;32.86;100996.16;4994799;28;20440;-84
2023/03/23 00:47:37;;;;;;;7.10;2.57;;;;;;;41.42;33.48;100995.31;4994781;28;20284;-84
2023/03/23 00:50:05;;;;;;;9.00;3.20;;;;;;;41.34;33.03;100989.56;4993935;28;20429;-84
2023/03/23 00:52:31;;;;;;;6.20;2.00;;;;;;;41.33;32.80;100990.69;4982962;28;20428;-84
2023/03/23 00:54:57;;;;;;;9.27;2.80;;;;;;;41.37;32.93;100995.47;4986765;28;20449;-82
2023/03/23 00:57:24;;;;;;;13.50;2.60;;;;;;;41.38;32.51;100994.38;4989972;28;20503;-82
2023/03/23 00:59:53;;;;;;;9.13;2.90;;;;;;;41.36;32.55;100980.28;4993911;28;20425;-81
2023/03/23 01:02:19;;;;;;;10.03;2.50;;;;;;;41.35;31.87;101001.25;4994318;28;20976;-84
2023/03/23 01:04:45;;;;;;;7.63;2.40;;;;;;;41.25;31.83;100980.63;4993450;28;20431;-84
2023/03/23 01:07:17;;;;;;;15.67;3.07;;;;;;;41.33;32.14;100984.47;4994074;28;20437;-84
2023/03/23 01:09:44;;;;;;;9.00;2.70;;;;;;;41.37;32.14;100979.16;4993858;28;20440;-84
2023/03/23 01:12:11;;;;;;;7.77;3.10;;;;;;;41.41;31.91;100988.25;4995598;28;20421;-84
2023/03/23 01:14:37;;;;;;;10.10;2.70;;;;;;;41.31;32.09;100979.31;5007829;28;20441;-82
2023/03/23 01:17:03;;;;;;;8.60;2.50;;;;;;;41.41;32.24;100977.38;4983121;28;20543;-83
2023/03/23 01:19:29;;;;;;;8.30;2.53;;;;;;;41.32;31.64;100974.66;4993492;28;21039;-82
2023/03/23 01:21:55;;;;;;;8.97;2.87;;;;;;;41.27;31.76;100961.25;4994200;28;20445;-82
2023/03/23 01:24:21;;;;;;;8.20;2.37;;;;;;;41.44;31.38;100974.81;4992822;28;20436;-82
2023/03/23 01:26:47;;;;;;;11.23;3.83;;;;;;;41.30;31.48;100964.09;4993682;28;20445;-82
2023/03/23 01:29:13;;;;;;;7.10;2.63;;;;;;;41.38;31.63;100964.44;4993471;28;20561;-82
2023/03/23 01:31:39;;;;;;;8.77;2.23;;;;;;;41.50;31.36;100961.81;4993785;28;20579;-82
2023/03/23 01:34:05;;;;;;;8.30;2.30;;;;;;;41.46;31.34;100960.84;5000040;28;20893;-83
2023/03/23 01:36:32;;;;;;;10.03;3.10;;;;;;;41.34;31.24;100946.00;4994072;28;20453;-82
2023/03/23 01:39:04;;;;;;;9.00;5.80;;;;;;;41.42;31.23;100954.47;4995544;28;20516;-85
2023/03/23 01:41:31;;;;;;;10.63;3.10;;;;;;;41.42;32.44;100957.97;5002699;28;20448;-85
2023/03/23 01:44:18;;;;;;;9.10;2.70;;;;;;;41.35;32.58;100952.25;4995149;28;20471;-84
2023/03/23 01:46:45;;;;;;;8.23;2.60;;;;;;;41.23;33.11;100950.19;5010301;28;20417;-84
2023/03/23 01:49:19;;;;;;;7.37;3.30;;;;;;;41.42;32.89;100957.19;4993640;28;20437;-84
2023/03/23 01:52:00;;;;;;;7.20;3.33;;;;;;;41.31;32.61;100951.28;4993584;28;20933;-84
2023/03/23 01:54:26;;;;;;;8.63;2.57;;;;;;;41.38;32.24;100954.34;4993840;28;20463;-84
2023/03/23 01:56:58;;;;;;;7.57;3.47;;;;;;;41.44;32.77;100955.75;5002221;28;20487;-84
2023/03/23 01:59:26;;;;;;;11.67;4.17;;;;;;;41.40;32.92;100952.06;4993615;28;20894;-84
2023/03/23 02:01:54;;;;;;;9.10;4.37;;;;;;;41.38;33.75;100945.38;4993495;28;20512;-84
2023/03/23 02:04:21;;;;;;;14.40;4.83;;;;;;;41.32;33.87;100951.00;4993682;28;20461;-84
2023/03/23 02:06:48;;;;;;;10.40;5.90;;;;;;;41.37;34.32;100951.91;4993588;28;20995;-84
2023/03/23 02:09:16;;;;;;;14.90;7.03;;;;;;;41.23;34.52;100939.31;5009619;28;20528;-82
2023/03/23 02:11:44;;;;;;;13.63;7.20;;;;;;;41.22;34.82;100943.16;4993408;28;20436;-82
2023/03/23 02:14:10;;;;;;;10.83;7.80;;;;;;;41.34;34.54;100940.56;4993469;28;20798;-82
2023/03/23 02:16:51;;;;;;;12.77;8.53;;;;;;;41.12;34.75;100929.13;4994437;28;20468;-82
2023/03/23 02:19:40;;;;;;;13.33;8.60;;;;;;;41.15;34.95;100926.53;5011728;28;20424;-82
2023/03/23 02:22:40;;;;;;;11.20;8.33;;;;;;;41.29;34.57;100927.13;5009692;28;20970;-82
2023/03/23 02:25:31;;;;;;;11.13;7.80;;;;;;;41.24;34.63;100918.34;5009720;28;20425;-82
2023/03/23 02:28:15;;;;;;;16.97;8.37;;;;;;;41.31;34.46;100922.16;5009476;28;20444;-82
2023/03/23 02:31:13;;;;;;;13.37;9.10;;;;;;;41.25;34.98;100914.47;4992891;28;20436;-82
2023/03/23 02:33:48;;;;;;;13.37;7.47;;;;;;;41.22;34.96;100910.50;5005896;28;20474;-82
2023/03/23 02:36:24;;;;;;;18.43;8.57;;;;;;;41.22;34.71;100910.50;4990918;28;20457;-82
2023/03/23 02:39:08;;;;;;;17.13;9.67;;;;;;;41.21;35.03;100913.56;4977918;28;20425;-82
2023/03/23 02:41:51;;;;;;;14.43;8.33;;;;;;;41.13;34.91;100901.59;5006043;28;20422;-82
2023/03/23 02:44:18;;;;;;;16.70;9.20;;;;;;;41.13;35.18;100904.31;4973386;28;20430;-84
2023/03/23 02:46:44;;;;;;;15.93;8.97;;;;;;;41.21;34.82;100897.22;4974634;28;20915;-84
2023/03/23 02:49:14;;;;;;;18.93;10.30;;;;;;;41.13;35.02;100906.22;4973412;28;20414;-84
2023/03/23 02:51:43;;;;;;;14.00;9.20;;;;;;;41.00;35.13;100892.50;4972407;28;20449;-82
2023/03/23 02:54:11;;;;;;;17.60;9.67;;;;;;;41.07;35.07;100889.28;4994140;28;20954;-81
2023/03/23 02:56:38;;;;;;;18.63;10.37;;;;;;;40.90;35.62;100882.00;4972909;28;21004;-84
2023/03/23 02:59:04;;;;;;;14.50;10.40;;;;;;;40.93;35.38;100886.78;4982509;28;20434;-84
2023/03/23 03:01:35;;;;;;;15.70;10.50;;;;;;;40.72;35.95;100880.44;4972497;28;20462;-84
2023/03/23 03:04:06;;;;;;;23.50;10.87;;;;;;;40.83;35.48;100875.44;5005754;28;20212;-84
2023/03/23 03:06:34;;;;;;;17.50;10.97;;;;;;;40.86;35.73;100863.91;4972752;28;20989;-82
2023/03/23 03:09:19;;;;;;;17.03;11.70;;;;;;;40.77;35.89;100861.22;4973141;28;20496;-80
2023/03/23 03:11:50;;;;;;;14.80;10.67;;;;;;;40.86;35.90;100853.81;4972792;28;20481;-82
2023/03/23 03:14:31;;;;;;;17.60;11.83;;;;;;;40.85;35.69;100854.94;4972808;28;20442;-82
2023/03/23 03:17:21;;;;;;;18.23;12.43;;;;;;;40.80;36.13;100861.34;4983287;28;20541;-82
2023/03/23 03:19:51;;;;;;;15.97;10.70;;;;;;;40.85;35.88;100854.94;4972469;28;20422;-82
2023/03/23 03:22:20;;;;;;;15.17;11.43;;;;;;;40.78;35.59;100855.47;4972911;28;20450;-82
2023/03/23 03:24:48;;;;;;;15.30;10.40;;;;;;;40.85;35.61;100851.44;4972767;28;20433;-82
2023/03/23 03:27:18;;;;;;;16.30;10.27;;;;;;;40.85;35.50;100857.66;4978869;28;20454;-82
2023/03/23 03:29:50;;;;;;;22.03;12.60;;;;;;;40.88;35.25;100853.47;4972602;28;20439;-81
2023/03/23 03:32:21;;;;;;;19.63;11.43;;;;;;;40.96;35.34;100852.69;4972432;28;20489;-84
2023/03/23 03:34:47;;;;;;;14.10;9.67;;;;;;;40.87;35.22;100836.38;5001960;28;20522;-84
2023/03/23 03:37:14;;;;;;;17.47;11.87;;;;;;;40.77;35.35;100855.78;5004577;28;20907;-82
2023/03/23 03:39:40;;;;;;;15.03;11.13;;;;;;;40.70;35.83;100859.00;4994952;28;20854;-82
2023/03/23 03:42:06;;;;;;;19.60;11.30;;;;;;;40.80;35.80;100864.06;4994983;28;20968;-82
2023/03/23 03:44:33;;;;;;;18.37;12.77;;;;;;;40.87;35.28;100860.84;4995104;28;20428;-81
2023/03/23 03:47:00;;;;;;;18.90;11.07;;;;;;;40.82;35.29;100863.75;4994227;28;20447;-83
2023/03/23 03:49:26;;;;;;;15.17;11.20;;;;;;;40.81;35.48;100862.16;5004550;28;20438;-83
2023/03/23 03:51:52;;;;;;;17.30;10.30;;;;;;;40.69;35.50;100845.72;4994770;28;20964;-82
2023/03/23 03:54:18;;;;;;;16.07;11.10;;;;;;;40.71;35.84;100852.44;4994690;28;20519;-82
2023/03/23 03:56:45;;;;;;;14.67;8.73;;;;;;;40.61;35.36;100839.19;4994703;28;20510;-82
2023/03/23 03:59:12;;;;;;;12.47;7.87;;;;;;;40.40;35.38;100841.00;5002032;28;20416;-82
2023/03/23 04:01:38;;;;;;;15.00;8.40;;;;;;;40.55;35.37;100838.56;4994436;28;20479;-82
2023/03/23 04:04:08;;;;;;;22.43;8.80;;;;;;;40.66;35.09;100849.09;4994883;28;20425;-83
2023/03/23 04:06:37;;;;;;;14.23;7.57;;;;;;;40.63;35.18;100847.03;5012114;28;20440;-81
2023/03/23 04:09:08;;;;;;;12.87;7.33;;;;;;;40.74;34.76;100857.22;4999313;28;20433;-81
2023/03/23 04:11:34;;;;;;;14.00;8.40;;;;;;;40.62;35.20;100850.88;4994252;28;20452;-84
2023/03/23 04:14:00;;;;;;;10.90;7.00;;;;;;;40.63;35.21;100858.69;4994947;28;21069;-84
2023/03/23 04:16:29;;;;;;;17.40;12.93;;;;;;;40.67;35.10;100861.56;4994271;28;20480;-84
2023/03/23 04:18:56;;;;;;;14.57;9.90;;;;;;;40.74;34.85;100867.31;4994454;28;20489;-83
2023/03/23 04:21:22;;;;;;;13.83;8.67;;;;;;;40.63;34.89;100868.78;5010819;28;20847;-84
2023/03/23 04:23:48;;;;;;;13.37;8.53;;;;;;;40.67;34.94;100869.72;4994302;28;20451;-82
2023/03/23 04:26:14;;;;;;;20.87;10.57;;;;;;;40.63;35.20;100864.13;4994453;28;20800;-82
2023/03/23 04:28:40;;;;;;;24.80;15.17;;;;;;;40.62;35.40;100864.47;4995011;28;20429;-82
2023/03/23 04:31:08;;;;;;;26.50;16.70;;;;;;;40.66;35.75;100871.66;5011954;28;20511;-83
2023/03/23 04:33:36;;;;;;;25.10;16.03;;;;;;;40.70;35.48;100872.63;5005834;28;20451;-82
2023/03/23 04:36:03;;;;;;;26.03;15.40;;;;;;;40.66;35.10;100882.53;5013190;28;20444;-81
2023/03/23 04:38:32;;;;;;;18.57;11.07;;;;;;;40.72;34.92;100878.50;5004430;28;20427;-82
2023/03/23 04:41:00;;;;;;;14.60;9.40;;;;;;;40.69;34.50;100862.84;4994761;28;20456;-82
2023/03/23 04:43:26;;;;;;;16.80;10.30;;;;;;;40.57;34.78;100873.59;5010828;28;20432;-84
2023/03/23 04:45:57;;;;;;;11.57;8.60;;;;;;;40.54;34.87;100877.78;4994363;28;20831;-82
2023/03/23 04:48:25;;;;;;;15.60;10.43;;;;;;;40.69;34.76;100873.72;5002700;28;20794;-84
2023/03/23 04:50:52;;;;;;;20.17;12.40;;;;;;;40.72;34.48;100870.34;4998532;28;20455;-83
2023/03/23 04:53:18;;;;;;;17.77;11.00;;;;;;;40.71;34.65;100882.38;4994192;28;20439;-82
2023/03/23 04:55:45;;;;;;;17.07;11.10;;;;;;;40.65;34.96;100880.16;4994337;28;20511;-81
2023/03/23 04:58:14;;;;;;;15.33;9.47;;;;;;;40.61;35.09;100881.91;4999953;28;20501;-83
2023/03/23 05:00:43;;;;;;;15.77;9.97;;;;;;;40.53;35.13;100878.09;4994418;28;20535;-83
2023/03/23 05:03:11;;;;;;;13.70;8.47;;;;;;;40.61;35.18;100885.44;4994053;28;20925;-81
2023/03/23 05:05:37;;;;;;;13.07;8.33;;;;;;;40.58;35.03;100879.81;4994273;28;20428;-82
2023/03/23 05:08:03;;;;;;;14.37;9.20;;;;;;;40.44;35.26;100880.78;4997652;28;20493;-82
2023/03/23 05:10:29;;;;;;;13.37;8.33;;;;;;;40.35;35.30;100888.19;4994137;28;20948;-82
2023/03/23 05:12:55;;;;;;;16.03;9.30;;;;;;;40.41;35.15;100880.66;4994582;28;20547;-82
2023/03/23 05:15:21;;;;;;;13.60;9.07;;;;;;;40.46;35.00;100873.13;4996835;28;20448;-82
2023/03/23 05:17:48;;;;;;;15.13;9.60;;;;;;;40.44;35.25;100880.00;4993743;28;20994;-82
2023/03/23 05:20:25;;;;;;;19.47;11.07;;;;;;;40.23;35.37;100867.09;4997760;28;20928;-82
2023/03/23 05:22:51;;;;;;;17.07;10.40;;;;;;;40.31;35.36;100880.97;4997527;28;20423;-82
2023/03/23 05:25:20;;;;;;;17.73;10.37;;;;;;;40.46;35.40;100883.22;4997468;28;20424;-82
2023/03/23 05:27:52;;;;;;;16.70;11.20;;;;;;;40.37;35.22;100888.66;4990860;28;20522;-82
2023/03/23 05:30:19;;;;;;;21.33;11.93;;;;;;;40.15;35.58;100880.69;4988828;28;20487;-82
2023/03/23 05:32:50;;;;;;;18.33;11.40;;;;;;;40.11;35.36;100887.88;4996573;28;20477;-82
2023/03/23 05:35:18;;;;;;;18.13;12.03;;;;;;;40.28;35.26;100896.03;4993583;28;20831;-82
2023/03/23 05:37:44;;;;;;;16.63;12.43;;;;;;;40.32;35.63;100893.44;4993084;28;20544;-83
2023/03/23 05:40:11;;;;;;;15.47;10.53;;;;;;;40.25;35.29;100897.44;4994072;28;20949;-83
2023/03/23 05:42:40;;;;;;;14.40;11.53;;;;;;;40.20;35.75;100894.91;4993327;28;20431;-83
2023/03/23 05:45:08;;;;;;;19.10;11.93;;;;;;;40.32;35.14;100904.31;4993653;28;20492;-84
2023/03/23 05:47:36;;;;;;;16.60;10.43;;;;;;;40.11;35.10;100893.31;4991597;28;20915;-83
2023/03/23 05:50:02;;;;;;;18.80;12.53;;;;;;;40.19;35.34;100901.47;4992800;28;20425;-83
2023/03/23 05:52:28;;;;;;;17.17;13.40;;;;;;;40.05;35.86;100900.84;4993483;28;20416;-83
2023/03/23 05:54:54;;;;;;;16.43;13.20;;;;;;;39.92;35.67;100885.47;4992733;28;20429;-84
2023/03/23 05:57:21;;;;;;;21.53;14.17;;;;;;;39.87;36.27;100899.19;4993921;28;20469;-84
2023/03/23 05:59:49;;;;;;;19.07;11.70;;;;;;;40.05;35.79;100919.84;4975529;28;20433;-85
2023/03/23 06:02:15;;;;;;;17.77;11.30;;;;;;;40.09;35.56;100917.31;4963040;28;20439;-84
2023/03/23 06:04:44;;;;;;;21.27;13.03;;;;;;;40.12;35.83;100927.53;4978591;28;20455;-82
2023/03/23 06:07:20;;;;;;;22.70;15.10;;;;;;;40.07;35.25;100909.44;4994221;28;20453;-85
2023/03/23 06:09:47;;;;;;;20.20;15.40;;;;;;;40.13;35.40;100913.59;4974540;28;20438;-85
2023/03/23 06:12:20;;;;;;;18.20;15.30;;;;;;;40.23;35.21;100923.38;4978497;28;20918;-85
2023/03/23 06:14:48;;;;;;;23.43;14.93;;;;;;;40.34;35.08;100951.81;4963624;28;20475;-84
2023/03/23 06:17:19;;;;;;;23.00;12.50;;;;;;;40.28;35.22;100962.06;4971562;28;20479;-87
2023/03/23 06:19:58;;;;;;;18.17;12.97;;;;;;;40.19;35.27;100950.38;4980433;28;20854;-86
2023/03/23 06:22:26;;;;;;;26.83;14.90;;;;;;;40.36;35.11;100963.16;4970177;28;20436;-85
2023/03/23 06:24:52;;;;;;;21.73;15.20;;;;;;;40.26;35.39;100967.00;4973447;28;20458;-84
2023/03/23 06:27:32;;;;;;;19.57;12.63;;;;;;;40.08;35.53;100940.94;4975530;28;20422;-85
2023/03/23 06:30:00;;;;;;;15.63;11.77;;;;;;;40.22;35.00;100966.03;4979731;28;20930;-87
2023/03/23 06:32:30;;;;;;;22.20;14.53;;;;;;;40.22;34.66;100959.81;4977512;28;20973;-81
2023/03/23 06:34:56;;;;;;;20.23;12.60;;;;;;;40.05;35.16;100951.66;4991700;28;20514;-84
2023/03/23 06:37:23;;;;;;;24.33;13.57;;;;;;;40.22;34.98;100971.47;4974018;28;20556;-85
2023/03/23 06:39:49;;;;;;;21.03;12.50;;;;;;;40.13;35.24;100961.72;4974333;28;20456;-88
2023/03/23 06:42:15;;;;;;;18.93;12.63;;;;;;;40.00;34.90;100952.56;4976993;28;20466;-86
2023/03/23 06:44:41;;;;;;;21.33;12.13;;;;;;;39.96;35.32;100995.06;4968581;28;20482;-84
2023/03/23 06:47:07;;;;;;;23.57;12.30;;;;;;;40.01;35.31;100981.34;4958253;28;20406;-85
2023/03/23 06:49:34;;;;;;;17.03;11.60;;;;;;;39.78;35.45;100988.00;4972126;28;20436;-83
2023/03/23 06:52:03;;;;;;;21.00;12.97;;;;;;;39.93;35.29;101001.94;4965754;28;20459;-85
2023/03/23 06:54:29;;;;;;;19.83;13.17;;;;;;;39.88;35.61;101010.22;4969859;28;20423;-88
2023/03/23 06:56:55;;;;;;;20.67;13.97;;;;;;;39.86;35.74;100992.66;4970080;28;20450;-85
2023/03/23 06:59:21;;;;;;;19.57;13.23;;;;;;;39.95;35.41;100999.69;4969167;28;20447;-86
2023/03/23 07:01:48;;;;;;;19.53;13.37;;;;;;;40.01;35.43;100992.19;4976722;28;20462;-85
2023/03/23 07:04:14;;;;;;;16.70;12.40;;;;;;;40.13;35.12;100995.13;4969103;28;20509;-85
2023/03/23 07:06:40;;;;;;;20.57;14.10;;;;;;;39.79;35.78;100989.63;4972416;28;20441;-85
2023/03/23 07:09:06;;;;;;;19.83;15.00;;;;;;;39.72;35.86;100999.03;4973578;28;20430;-84
2023/03/23 07:11:32;;;;;;;23.93;14.00;;;;;;;39.78;36.06;101013.25;4974060;28;20826;-85
2023/03/23 07:13:58;;;;;;;19.10;12.87;;;;;;;39.96;35.65;101022.22;4973698;28;20965;-84
2023/03/23 07:16:26;;;;;;;21.27;14.47;;;;;;;40.01;35.51;101019.38;4972447;28;20470;-84
2023/03/23 07:18:52;;;;;;;22.90;16.63;;;;;;;39.82;35.53;101016.13;4973603;28;20457;-84
2023/03/23 07:21:17;;;;;;;20.80;14.23;;;;;;;39.84;35.49;101031.00;4973892;28;20441;-86
2023/03/23 07:23:46;;;;;;;20.23;16.50;;;;;;;40.00;35.35;101036.78;4982182;28;20434;-83
2023/03/23 07:26:25;;;;;;;17.67;13.43;;;;;;;39.91;35.75;101039.50;4973220;28;20175;-86
2023/03/23 07:28:51;;;;;;;22.97;15.40;;;;;;;40.16;35.54;101048.84;4973194;28;20438;-84
2023/03/23 07:31:17;;;;;;;25.83;14.93;;;;;;;40.18;35.38;101043.09;4974144;28;20529;-83
2023/03/23 07:33:43;;;;;;;21.70;15.23;;;;;;;40.28;35.63;101061.81;4982456;28;20495;-83
2023/03/23 07:36:10;;;;;;;21.13;16.00;;;;;;;40.26;35.13;101053.16;4995737;28;20924;-85
2023/03/23 07:38:36;;;;;;;31.10;15.53;;;;;;;40.24;35.23;101044.53;4994566;28;20460;-83
2023/03/23 07:41:07;;;;;;;24.57;15.17;;;;;;;40.09;35.49;101047.72;4995284;28;20436;-83
2023/03/23 07:43:33;;;;;;;23.00;12.33;;;;;;;40.07;35.77;101069.75;4986983;28;20464;-84
2023/03/23 07:46:00;;;;;;;19.30;12.10;;;;;;;40.33;35.51;101071.72;4995195;28;20465;-85
2023/03/23 07:48:39;;;;;;;19.77;14.70;;;;;;;40.38;35.45;101083.25;4994920;28;20463;-84
2023/03/23 07:51:07;;;;;;;18.60;13.87;;;;;;;40.53;35.04;101074.66;4995494;28;20515;-85
2023/03/23 07:53:34;;;;;;;15.37;13.20;;;;;;;40.57;34.80;101074.81;4995048;28;20444;-84
2023/03/23 07:56:35;;;;;;;18.23;12.30;;;;;;;40.38;34.71;101053.34;4996266;28;20936;-84
2023/03/23 08:01:50;;;;;;;18.70;12.80;;;;;;;40.39;34.90;101049.53;5019724;28;20499;-83
2023/03/23 08:04:36;;;;;;;18.70;11.80;;;;;;;40.46;35.24;101068.88;5000125;28;20435;-84
2023/03/23 08:07:07;;;;;;;15.43;11.13;;;;;;;40.24;35.06;101049.97;5007689;28;20505;-86
2023/03/23 08:09:36;;;;;;;23.47;12.63;;;;;;;40.54;34.81;101099.94;4994567;28;20445;-85
2023/03/23 08:12:07;;;;;;;25.07;14.60;;;;;;;40.50;35.30;101104.38;5008219;28;20424;-84
2023/03/23 08:14:35;;;;;;;21.63;15.20;;;;;;;39.86;35.85;101061.38;5006682;28;20432;-82
2023/03/23 08:17:03;;;;;;;19.70;12.63;;;;;;;40.14;35.30;101072.81;5019105;28;20560;-83
2023/03/23 08:19:30;;;;;;;21.27;13.83;;;;;;;40.26;35.16;101091.22;5003156;28;20435;-85
2023/03/23 08:21:57;;;;;;;27.77;17.00;;;;;;;40.38;35.01;101098.75;5025177;28;20520;-85
2023/03/23 08:24:23;;;;;;;31.03;18.37;;;;;;;40.59;35.08;101102.50;4994665;28;20571;-82
2023/03/23 08:26:49;;;;;;;12.93;9.90;;;;;;;40.43;34.77;101082.28;4995376;28;20424;-85
2023/03/23 08:29:16;;;;;;;15.90;10.80;;;;;;;40.67;34.35;101104.41;4995252;28;20908;-85
2023/03/23 08:31:44;;;;;;;19.57;13.33;;;;;;;40.74;34.75;101103.94;5001554;28;20455;-82
2023/03/23 08:34:11;;;;;;;18.57;11.03;;;;;;;40.46;35.31;101108.84;5015302;28;20468;-82
2023/03/23 08:36:37;;;;;;;21.77;9.90;;;;;;;40.52;34.56;101102.97;4994815;28;20464;-83
2023/03/23 08:39:05;;;;;;;12.07;8.33;;;;;;;40.49;34.89;101097.34;4994349;28;20673;-82
2023/03/23 08:41:31;;;;;;;19.17;13.30;;;;;;;40.75;34.68;101111.75;4996428;28;20436;-82
2023/03/23 08:43:57;;;;;;;15.47;10.17;;;;;;;40.77;34.88;101103.31;4994541;28;20940;-82
2023/03/23 08:46:23;;;;;;;18.20;9.80;;;;;;;40.57;35.38;101099.28;5010985;28;20467;-82
2023/03/23 08:48:50;;;;;;;18.77;10.20;;;;;;;40.54;34.78;101070.81;4994883;28;20462;-82
2023/03/23 08:51:17;;;;;;;18.17;10.07;;;;;;;40.76;34.99;101091.63;4998531;28;20436;-82
2023/03/23 08:53:43;;;;;;;15.00;7.87;;;;;;;40.53;35.60;101096.41;5000647;28;20432;-82
2023/03/23 08:56:12;;;;;;;18.53;8.40;;;;;;;40.68;35.33;101107.94;4997157;28;20436;-82
2023/03/23 08:58:39;;;;;;;14.40;8.47;;;;;;;40.85;35.24;101094.31;5009186;28;20459;-81
2023/03/23 09:01:07;;;;;;;10.70;6.07;;;;;;;40.62;35.21;101098.31;4995688;28;20432;-82
2023/03/23 09:03:34;;;;;;;9.97;5.90;;;;;;;40.65;35.43;101089.53;4993320;28;20516;-81
2023/03/23 09:06:03;;;;;;;10.83;5.63;;;;;;;40.77;35.32;101101.38;5008214;28;20798;-82
2023/03/23 09:08:30;;;;;;;11.40;4.57;;;;;;;40.86;35.30;101106.00;5007801;28;20448;-82
2023/03/23 09:11:08;;;;;;;10.00;5.83;;;;;;;40.90;35.88;101104.25;4994091;28;20520;-81
2023/03/23 09:13:38;;;;;;;11.03;6.17;;;;;;;40.99;35.62;101105.84;5014481;28;20432;-81
2023/03/23 09:16:05;;;;;;;13.33;5.87;;;;;;;40.99;35.28;101100.41;4996925;28;20427;-83
2023/03/23 09:18:32;;;;;;;9.80;4.47;;;;;;;41.07;35.09;101104.28;5013648;28;20417;-80
2023/03/23 09:20:59;;;;;;;10.80;5.03;;;;;;;41.08;35.09;101111.31;4997586;28;20420;-81
2023/03/23 09:23:26;;;;;;;9.97;5.77;;;;;;;41.07;35.56;101107.78;4999203;28;20420;-82
2023/03/23 09:25:52;;;;;;;9.33;5.13;;;;;;;40.92;35.82;101091.94;4997691;28;20424;-81
2023/03/23 09:28:18;;;;;;;12.20;5.57;;;;;;;41.04;35.28;101086.66;4997269;28;20486;-82
2023/03/23 09:30:45;;;;;;;13.17;6.93;;;;;;;41.03;35.37;101093.22;4997240;28;20522;-81
2023/03/23 09:33:11;;;;;;;9.43;4.43;;;;;;;41.00;35.30;101093.06;4997198;28;20472;-82
2023/03/23 09:35:38;;;;;;;12.50;6.67;;;;;;;41.16;35.24;101094.16;4975650;28;20544;-83
2023/03/23 09:38:05;;;;;;;9.83;5.10;;;;;;;41.18;35.07;101093.81;4974307;28;20486;-82
2023/03/23 09:40:43;;;;;;;11.53;6.00;;;;;;;41.20;34.87;101102.50;4990991;28;20461;-81
2023/03/23 09:43:27;;;;;;;11.43;5.50;;;;;;;41.13;33.74;101089.38;4981522;28;20528;-82
2023/03/23 09:45:56;;;;;;;11.47;3.90;;;;;;;41.04;33.91;101085.84;4962118;28;20438;-85
2023/03/23 09:48:49;;;;;;;11.20;5.27;;;;;;;41.13;34.64;101092.09;4973482;28;20445;-82
2023/03/23 09:51:21;;;;;;;10.60;4.70;;;;;;;41.09;33.94;101077.53;4973099;28;20423;-83
2023/03/23 09:54:03;;;;;;;12.93;4.40;;;;;;;41.25;34.13;101084.06;4974988;28;20441;-89
2023/03/23 09:56:35;;;;;;;10.30;4.40;;;;;;;41.36;33.78;101078.28;4972809;28;20514;-87
2023/03/23 09:59:35;;;;;;;9.53;3.67;;;;;;;41.37;33.02;101080.66;4960410;28;20454;-89
2023/03/23 10:02:38;;;;;;;15.47;5.60;;;;;;;41.31;34.10;101073.78;4940772;28;20521;-87
2023/03/23 10:05:45;;;;;;;8.30;3.90;;;;;;;41.40;34.07;101068.34;4962696;28;20435;-85
2023/03/23 10:08:19;;;;;;;9.30;4.70;;;;;;;41.34;33.88;101068.53;4956104;28;20469;-86
2023/03/23 10:10:57;;;;;;;10.60;5.30;;;;;;;41.36;34.43;101067.41;4978314;28;20445;-85
2023/03/23 10:13:22;;;;;;;8.50;4.67;;;;;;;41.31;34.88;101062.88;4966186;28;20433;-86
2023/03/23 10:15:50;;;;;;;10.77;4.93;;;;;;;41.19;35.28;101062.75;4982889;28;20806;-88
2023/03/23 10:18:29;;;;;;;9.20;5.20;;;;;;;41.16;35.16;101057.97;4973894;28;20462;-87
2023/03/23 10:20:58;;;;;;;9.63;5.03;;;;;;;41.13;35.41;101059.44;4968612;28;20435;-87
2023/03/23 10:23:42;;;;;;;9.70;5.03;;;;;;;41.13;34.77;101050.44;4970322;28;20422;-86
2023/03/23 10:26:25;;;;;;;13.67;5.37;;;;;;;41.18;34.96;101048.34;4983570;28;20942;-86
2023/03/23 10:29:00;;;;;;;15.57;5.73;;;;;;;41.12;34.98;101041.50;4968575;28;20473;-86
2023/03/23 10:31:34;;;;;;;13.73;5.70;;;;;;;41.19;35.16;101044.53;4960494;28;20450;-85
2023/03/23 10:34:12;;;;;;;12.73;5.53;;;;;;;41.19;35.00;101040.97;4969457;28;20514;-84
2023/03/23 10:37:10;;;;;;;8.27;4.47;;;;;;;41.24;35.15;101036.16;4967907;28;20478;-85
2023/03/23 10:39:58;;;;;;;10.30;5.33;;;;;;;41.22;35.50;101045.78;4961269;28;20836;-85
2023/03/23 10:42:35;;;;;;;8.70;5.10;;;;;;;41.32;35.88;101037.28;4973695;28;20449;-87
2023/03/23 10:45:19;;;;;;;11.13;6.13;;;;;;;41.33;34.87;101034.25;4964331;28;21038;-84
2023/03/23 10:48:14;;;;;;;12.37;5.87;;;;;;;41.16;35.16;101020.66;4978197;28;20433;-86
2023/03/23 10:50:43;;;;;;;11.73;5.03;;;;;;;41.23;34.71;101026.41;4968793;28;20837;-85
2023/03/23 10:53:23;;;;;;;10.87;4.40;;;;;;;41.18;34.21;101023.84;4964654;28;20513;-84
2023/03/23 10:55:50;;;;;;;11.10;5.87;;;;;;;41.30;33.90;101020.47;4954573;28;20459;-88
2023/03/23 10:58:32;;;;;;;13.30;4.63;;;;;;;41.39;33.67;101017.75;4978847;28;20493;-87
2023/03/23 11:01:00;;;;;;;11.60;4.70;;;;;;;41.25;33.92;101016.00;4964567;28;20939;-86
2023/03/23 11:03:51;;;;;;;7.80;4.00;;;;;;;40.99;32.91;101016.06;4970209;28;20915;-86
2023/03/23 11:06:23;;;;;;;8.57;3.53;;;;;;;41.11;33.17;101012.69;4973843;28;20489;-87
2023/03/23 11:08:56;;;;;;;9.10;3.80;;;;;;;41.30;33.61;101013.09;4973598;28;20458;-87
2023/03/23 11:11:31;;;;;;;9.47;3.70;;;;;;;41.19;32.88;101006.44;4989110;28;20942;-86
2023/03/23 11:14:28;;;;;;;8.93;3.73;;;;;;;41.14;33.71;101012.03;4973277;28;20430;-86
2023/03/23 11:17:22;;;;;;;9.07;3.60;;;;;;;41.34;33.47;101005.09;4984412;28;20892;-88
2023/03/23 11:19:48;;;;;;;12.70;3.73;;;;;;;41.53;32.86;101004.69;4989689;28;20429;-86
2023/03/23 11:22:27;;;;;;;8.63;3.73;;;;;;;41.11;33.56;100982.75;4973459;28;20426;-86
2023/03/23 11:25:14;;;;;;;9.43;3.53;;;;;;;41.43;33.55;100986.00;4974177;28;20186;-89
2023/03/23 11:27:45;;;;;;;8.20;4.20;;;;;;;41.32;33.98;100983.66;4974939;28;21006;-90
2023/03/23 11:30:27;;;;;;;10.80;4.90;;;;;;;41.06;34.67;100963.88;4958753;28;20438;-87
2023/03/23 11:33:00;;;;;;;12.00;6.83;;;;;;;41.32;34.29;100972.78;4970739;28;20422;-91
2023/03/23 11:35:28;;;;;;;9.43;3.60;;;;;;;41.21;33.53;100957.91;4996794;28;20486;-90